createdAt,value
2019-05-20T00:00:31.295Z,20.00
2019-05-20T00:05:38.196Z,20.00
2019-05-20T00:10:47.170Z,20.12
2019-05-20T00:15:56.114Z,18.75
2019-05-20T00:21:03.403Z,18.56
2019-05-20T00:26:10.715Z,22.00
2019-05-20T00:31:18.947Z,17.25
2019-05-20T00:36:27.075Z,13.00
2019-05-20T00:41:36.069Z,17.62
2019-05-20T00:46:44.890Z,15.13
2019-05-20T00:51:48.786Z,12.00
2019-05-20T00:56:55.065Z,17.00
2019-05-20T01:02:02.480Z,18.00
2019-05-20T01:07:08.768Z,14.63
2019-05-20T01:12:17.839Z,14.00
2019-05-20T01:17:25.011Z,17.62
2019-05-20T01:22:33.270Z,16.25
2019-05-20T01:27:39.847Z,21.50
2019-05-20T01:32:44.645Z,15.00
2019-05-20T01:37:54.172Z,19.00
2019-05-20T01:43:01.511Z,20.25
2019-05-20T01:48:10.591Z,21.87
2019-05-20T01:53:19.643Z,23.75
2019-05-20T01:58:27.852Z,24.33
2019-05-20T02:03:36.185Z,23.00
2019-05-20T02:08:43.589Z,26.00
2019-05-20T02:13:50.838Z,24.00
2019-05-20T02:18:55.819Z,24.00
2019-05-20T02:23:59.345Z,21.67
2019-05-20T02:29:06.270Z,27.00
2019-05-20T02:34:13.669Z,22.87
2019-05-20T02:39:26.498Z,20.75
2019-05-20T02:44:33.115Z,17.67
2019-05-20T02:49:37.452Z,19.17
2019-05-20T02:54:45.823Z,20.00
2019-05-20T02:59:50.870Z,18.75
2019-05-20T03:04:59.242Z,19.00
2019-05-20T03:10:07.368Z,17.00
2019-05-20T03:15:13.968Z,11.00
2019-05-20T03:20:19.014Z,15.00
2019-05-20T03:25:22.216Z,16.00
2019-05-20T03:30:25.550Z,15.00
2019-05-20T03:35:31.267Z,22.62
2019-05-20T03:40:40.196Z,17.00
2019-05-20T03:45:44.202Z,14.00
2019-05-20T03:50:47.975Z,13.25
2019-05-20T03:55:51.111Z,15.33
2019-05-20T04:00:55.127Z,19.00
2019-05-20T04:06:00.626Z,15.13
2019-05-20T04:11:09.761Z,22.37
2019-05-20T04:16:18.072Z,17.00
2019-05-20T04:21:27.015Z,15.75
2019-05-20T04:26:31.161Z,19.67
2019-05-20T04:31:35.051Z,20.00
2019-05-20T04:36:39.160Z,20.00
2019-05-20T04:41:43.055Z,17.75
2019-05-20T04:46:49.665Z,17.67
2019-05-20T04:51:54.882Z,23.00
2019-05-20T04:57:01.061Z,16.87
2019-05-20T05:02:10.483Z,16.75
2019-05-20T05:07:15.439Z,20.00
2019-05-20T05:12:23.945Z,18.75
2019-05-20T05:17:32.534Z,21.45
2019-05-20T05:22:37.507Z,20.00
2019-05-20T05:27:44.311Z,18.37
2019-05-20T05:32:53.527Z,16.00
2019-05-20T05:38:03.377Z,26.62
2019-05-20T05:43:07.896Z,16.50
2019-05-20T05:48:11.330Z,19.33
2019-05-20T05:53:18.824Z,19.50
2019-05-20T05:58:22.941Z,14.33
2019-05-20T06:03:28.688Z,17.62
2019-05-20T06:08:36.102Z,13.13
2019-05-20T06:13:44.500Z,9.38
2019-05-20T06:18:48.823Z,17.00
2019-05-20T06:23:54.582Z,13.38
2019-05-20T06:29:03.046Z,13.00
2019-05-20T06:34:09.975Z,11.12
2019-05-20T06:39:17.224Z,12.00
2019-05-20T06:44:24.573Z,14.25
2019-05-20T06:49:30.869Z,11.00
2019-05-20T06:54:38.594Z,21.25
2019-05-20T06:59:41.760Z,24.00
2019-05-20T07:04:47.139Z,8.00
2019-05-20T07:09:51.241Z,8.33
2019-05-20T07:14:55.418Z,4.20
2019-05-20T07:19:58.904Z,6.00
2019-05-20T07:25:03.298Z,4.00
2019-05-20T07:30:14.948Z,7.00
2019-05-20T07:35:29.382Z,6.67
2019-05-20T07:40:29.128Z,3.67
2019-05-20T07:45:35.659Z,6.00
2019-05-20T07:50:40.562Z,7.00
2019-05-20T07:55:51.536Z,4.80
2019-05-20T08:00:58.836Z,3.33
2019-05-20T08:06:02.502Z,4.60
2019-05-20T08:11:06.287Z,10.17
2019-05-20T08:16:14.164Z,7.00
2019-05-20T08:21:18.947Z,6.00
2019-05-20T08:26:22.551Z,6.00
2019-05-20T08:31:30.579Z,7.90
2019-05-20T08:36:36.625Z,9.29
2019-05-20T08:41:42.963Z,10.00
2019-05-20T08:46:47.780Z,6.00
2019-05-20T08:51:53.967Z,6.20
2019-05-20T08:56:57.643Z,7.83
2019-05-20T09:02:01.448Z,10.00
2019-05-20T09:07:05.143Z,4.17
2019-05-20T09:12:08.682Z,19.50
2019-05-20T09:17:14.971Z,13.00
2019-05-20T09:22:19.599Z,9.00
2019-05-20T09:27:24.386Z,8.00
2019-05-20T09:32:28.307Z,4.17
2019-05-20T09:37:32.948Z,5.17
2019-05-20T09:42:41.048Z,7.17
2019-05-20T09:47:47.200Z,11.43
2019-05-20T09:52:50.918Z,7.00
2019-05-20T09:57:54.839Z,6.00
2019-05-20T10:02:58.669Z,7.00
2019-05-20T10:08:02.380Z,6.67
2019-05-20T10:13:07.901Z,6.00
2019-05-20T10:18:13.240Z,4.00
2019-05-20T10:23:16.980Z,9.00
2019-05-20T10:28:20.929Z,6.60
2019-05-20T10:33:28.775Z,6.60
2019-05-20T10:38:31.726Z,6.60
2019-05-20T10:43:38.685Z,6.00
2019-05-20T10:48:43.149Z,5.00
2019-05-20T10:53:49.588Z,5.20
2019-05-20T10:58:57.539Z,8.40
2019-05-20T11:04:02.911Z,9.00
2019-05-20T11:09:14.058Z,8.33
2019-05-20T11:14:11.516Z,9.00
2019-05-20T11:19:15.537Z,5.40
2019-05-20T11:24:21.022Z,12.00
2019-05-20T11:29:25.802Z,11.29
2019-05-20T11:34:32.257Z,11.38
2019-05-20T11:39:36.771Z,10.57
2019-05-20T11:44:42.370Z,17.62
2019-05-20T11:49:46.155Z,10.33
2019-05-20T11:54:50.736Z,17.71
2019-05-20T11:59:55.315Z,10.57
2019-05-20T12:05:00.013Z,17.71
2019-05-20T12:10:08.032Z,9.88
2019-05-20T12:15:12.293Z,15.75
2019-05-20T12:20:17.651Z,13.71
2019-05-20T12:25:22.146Z,13.00
2019-05-20T12:30:26.119Z,12.00
2019-05-20T12:35:29.271Z,22.67
2019-05-20T12:40:33.938Z,11.43
2019-05-20T12:45:39.502Z,9.14
2019-05-20T12:50:45.775Z,13.00
2019-05-20T12:55:50.453Z,7.67
2019-05-20T13:00:57.531Z,8.67
2019-05-20T13:06:01.944Z,8.33
2019-05-20T13:11:07.352Z,8.71
2019-05-20T13:16:13.482Z,10.71
2019-05-20T13:21:18.424Z,19.50
2019-05-20T13:26:22.709Z,7.60
2019-05-20T13:31:28.132Z,6.17
2019-05-20T13:36:32.880Z,6.00
2019-05-20T13:41:38.275Z,9.83
2019-05-20T13:46:46.971Z,11.38
2019-05-20T13:51:50.691Z,7.67
2019-05-20T13:56:57.048Z,10.17
2019-05-20T14:02:04.187Z,8.50
2019-05-20T14:07:11.488Z,8.67
2019-05-20T14:12:18.629Z,9.67
2019-05-20T14:17:24.228Z,17.29
2019-05-20T14:22:28.995Z,12.29
2019-05-20T14:27:33.853Z,14.67
2019-05-20T14:32:37.807Z,11.67
2019-05-20T14:37:47.600Z,14.71
2019-05-20T14:42:54.082Z,10.00
2019-05-20T14:47:59.644Z,10.71
2019-05-20T14:53:05.410Z,10.29
2019-05-20T14:58:10.375Z,7.67
2019-05-20T15:03:16.237Z,12.86
2019-05-20T15:08:22.794Z,6.17
2019-05-20T15:13:28.487Z,13.14
2019-05-20T15:18:36.675Z,12.71
2019-05-20T15:23:41.681Z,10.17
2019-05-20T15:28:46.669Z,8.00
2019-05-20T15:33:50.898Z,4.00
2019-05-20T15:38:56.670Z,20.00
2019-05-20T15:44:01.634Z,10.33
2019-05-20T15:49:10.571Z,6.73
2019-05-20T15:54:13.620Z,15.67
2019-05-20T15:59:20.005Z,7.86
2019-05-20T16:04:23.993Z,7.50
2019-05-20T16:09:26.959Z,16.00
2019-05-20T16:14:32.014Z,13.00
2019-05-20T16:19:38.367Z,10.57
2019-05-20T16:24:45.223Z,10.80
2019-05-20T16:30:04.796Z,8.71
2019-05-20T16:34:53.854Z,5.83
2019-05-20T16:40:00.251Z,13.50
2019-05-20T16:45:06.427Z,11.29
2019-05-20T16:50:10.396Z,11.33
2019-05-20T16:55:14.667Z,8.67
2019-05-20T17:00:30.903Z,7.50
2019-05-20T17:05:29.003Z,13.29
2019-05-20T17:10:34.642Z,10.00
2019-05-20T17:15:37.722Z,13.25
2019-05-20T17:20:46.140Z,16.12
2019-05-20T17:25:51.361Z,11.43
2019-05-20T17:30:55.180Z,11.00
2019-05-20T17:36:00.675Z,8.71
2019-05-20T17:41:04.674Z,4.17
2019-05-20T17:46:10.282Z,11.71
2019-05-20T17:51:13.983Z,8.33
2019-05-20T17:56:18.007Z,11.00
2019-05-20T18:01:24.360Z,11.29
2019-05-20T18:06:30.292Z,13.29
2019-05-20T18:11:33.946Z,15.50
2019-05-20T18:16:37.526Z,17.00
2019-05-20T18:21:43.791Z,10.29
2019-05-20T18:26:46.738Z,17.00
2019-05-20T18:31:50.382Z,10.17
2019-05-20T18:36:57.500Z,12.22
2019-05-20T18:42:02.239Z,12.29
2019-05-20T18:47:08.848Z,7.20
2019-05-20T18:52:17.145Z,15.00
2019-05-20T18:57:22.116Z,16.00
2019-05-20T19:02:27.857Z,11.14
2019-05-20T19:07:32.219Z,9.33
2019-05-20T19:12:36.785Z,4.40
2019-05-20T19:17:40.656Z,8.00
2019-05-20T19:22:45.432Z,17.29
2019-05-20T19:27:52.639Z,9.67
2019-05-20T19:32:55.955Z,5.33
2019-05-20T19:37:59.126Z,8.67
2019-05-20T19:43:06.627Z,9.00
2019-05-20T19:48:14.087Z,7.33
2019-05-20T19:53:23.228Z,8.00
2019-05-20T19:58:27.875Z,9.00
2019-05-20T20:03:31.876Z,7.50
2019-05-20T20:08:35.689Z,7.40
2019-05-20T20:13:39.471Z,7.67
2019-05-20T20:18:43.459Z,8.00
2019-05-20T20:23:50.387Z,11.86
2019-05-20T20:28:58.735Z,12.00
2019-05-20T20:34:03.950Z,9.00
2019-05-20T20:39:07.550Z,11.00
2019-05-20T20:44:14.354Z,12.63
2019-05-20T20:49:20.755Z,13.00
2019-05-20T20:54:24.369Z,7.00
2019-05-20T20:59:31.480Z,6.00
2019-05-20T21:04:40.260Z,12.90
2019-05-20T21:09:49.545Z,12.45
2019-05-20T21:14:56.489Z,16.00
2019-05-20T21:20:00.108Z,8.83
2019-05-20T21:25:04.086Z,12.00
2019-05-20T21:30:10.760Z,14.00
2019-05-20T21:35:18.009Z,13.88
2019-05-20T21:40:24.092Z,10.00
2019-05-20T21:45:27.095Z,13.33
2019-05-20T21:50:34.026Z,14.00
2019-05-20T21:55:40.959Z,16.87
2019-05-20T22:00:44.540Z,13.00
2019-05-20T22:15:25.723Z,15.00
2019-05-20T22:20:31.012Z,15.00
2019-05-20T22:25:35.486Z,12.00
2019-05-20T22:30:41.926Z,15.00
2019-05-20T22:35:47.243Z,16.43
2019-05-20T22:40:51.535Z,16.00
2019-05-20T22:45:58.490Z,16.00
2019-05-20T22:51:05.390Z,12.63
2019-05-20T22:56:08.865Z,14.50
2019-05-20T23:01:15.716Z,15.00
2019-05-20T23:06:20.000Z,14.67
2019-05-20T23:11:26.901Z,15.00
2019-05-20T23:16:30.230Z,12.75
2019-05-20T23:21:34.599Z,15.00
2019-05-20T23:26:38.080Z,12.25
2019-05-20T23:31:44.372Z,10.29
2019-05-20T23:36:48.113Z,15.00
2019-05-20T23:41:51.705Z,11.00
2019-05-20T23:46:55.429Z,9.17
2019-05-20T23:52:02.289Z,10.00
2019-05-20T23:57:07.689Z,11.00
